Aérodrome :
LOGIN :

S'inscrire | Disclaimer

   EN    FR    IT 

 










Légende :    VFR   VFR Marginal   IFR   IFR Intensif   IFR Très Intensif
Visi : 
Plafond : 
>= 8 km
>= 3000ft
5 à 8 km
1000 à 3000 ft
1500m à 5 km
500 à 1000 ft
800 à 1500m
200 à 500 ft
< 800m
< 200 ft
Symboles :   Orages  Brouillard  Fortes neiges  Fortes précipitations  Vent > 20 kt
SIGMETs :   Divers  Orages  Givrage  Turbulence  Onde Orograph.  Cendres Volcan.







- Altitude de l'aérodrome : 25 ft
- Code IATA : QCY


EGXC - RAF Coningsby

DERNIER METAR :
  • 240050Z 19016KT CAVOK 09/07 Q1008 BLU

METARs EXPIRÉS :
  • 232356Z 20014KT CAVOK 09/07 Q1009 BLU
  • 232250Z 21013KT CAVOK 09/07 Q1009 BLU NOSIG

TAF COR TAF EGXC
Valide du 24 à 00h jusqu'au 24 à 18h UTC


232347Z 2400/2418 22015KT 9999 FEW020
BECMG 2400/2403 19017G28KT
TEMPO 2405/2409 21030G40KT BKN015
PROB40
TEMPO 2408/2410 3000 +RA BKN010
BECMG 2410/2412 23018G28KT
TEMPO 2410/2412 6000 RA BKN010
PROB30
TEMPO 2412/2418 7000 SHRA
Pas de NOTAMs connus pour ce terrain.
1 SIGMET publié pour la FIR London (EGTT) :
 
Turbulence forte
EGTT SIGMET 03 VALID 232330/240330 EGRR
EGTT LONDON FIR SEV TURB FCST WI N5100 W00800 - N5220 W00530 - N5426 W00530 - N5357 W00438 - N5146 W00503 - N4910 W00800 - N5100 W00800 SFC/FL060 MOV NE 45KT NC=



MET'MAP, la Météo Aéronautique d'un coup d'oeil ! - Copyright ORBIFLY Décembre 2007 - Disclaimer

ORBIFLY MET'MAP TEAM :

Programmation & Développement : Alexandra Zaïnal
Conception & Développement : Baudouin d'Aumeries
Co-Programmation & Développement : Marc-Olivier Méhu
Soutien technique & logistique : Manuel Goepfert

Contact : metmap@orbifly.com




SOURCES & CREDITS :

   NOAA